sensor_id;sensor_type;location;lat;lon;timestamp;pressure;altitude;pressure_sealevel;temperature;humidity
78717;BME280;68045;50.042;14.432;2023-04-09T00:01:45;99093.22;;;5.98;67.89
78717;BME280;68045;50.042;14.432;2023-04-09T00:05:46;99090.16;;;5.95;67.88
78717;BME280;68045;50.042;14.432;2023-04-09T00:09:47;99086.34;;;5.97;68.10
78717;BME280;68045;50.042;14.432;2023-04-09T00:13:48;99080.13;;;5.98;68.55
78717;BME280;68045;50.042;14.432;2023-04-09T00:17:49;99090.16;;;5.95;68.37
78717;BME280;68045;50.042;14.432;2023-04-09T00:21:50;99076.34;;;6.01;68.98
78717;BME280;68045;50.042;14.432;2023-04-09T00:25:52;99082.75;;;5.98;67.86
78717;BME280;68045;50.042;14.432;2023-04-09T00:29:53;99086.81;;;6.01;68.81
78717;BME280;68045;50.042;14.432;2023-04-09T00:33:56;99091.50;;;6.05;68.52
78717;BME280;68045;50.042;14.432;2023-04-09T00:37:57;99095.03;;;5.98;68.50
78717;BME280;68045;50.042;14.432;2023-04-09T00:42:00;99074.63;;;5.93;67.84
78717;BME280;68045;50.042;14.432;2023-04-09T00:46:04;99073.16;;;5.91;67.40
78717;BME280;68045;50.042;14.432;2023-04-09T00:50:06;99085.41;;;5.90;67.41
78717;BME280;68045;50.042;14.432;2023-04-09T00:54:07;99092.16;;;5.93;67.07
78717;BME280;68045;50.042;14.432;2023-04-09T00:58:08;99088.03;;;5.90;66.93
78717;BME280;68045;50.042;14.432;2023-04-09T01:02:09;99087.72;;;5.93;67.15
78717;BME280;68045;50.042;14.432;2023-04-09T01:06:16;99078.75;;;5.88;67.36
78717;BME280;68045;50.042;14.432;2023-04-09T01:10:30;99080.16;;;5.90;68.47
78717;BME280;68045;50.042;14.432;2023-04-09T01:14:48;99072.88;;;5.86;68.57
78717;BME280;68045;50.042;14.432;2023-04-09T01:18:57;99078.44;;;5.83;68.89
78717;BME280;68045;50.042;14.432;2023-04-09T01:23:10;99087.34;;;5.96;68.91
78717;BME280;68045;50.042;14.432;2023-04-09T01:27:14;99085.25;;;5.92;68.69
78717;BME280;68045;50.042;14.432;2023-04-09T01:31:34;99078.88;;;5.94;69.38
78717;BME280;68045;50.042;14.432;2023-04-09T01:35:36;99084.09;;;5.94;69.38
78717;BME280;68045;50.042;14.432;2023-04-09T01:39:38;99080.78;;;6.00;69.14
78717;BME280;68045;50.042;14.432;2023-04-09T01:43:40;99086.63;;;6.02;69.48
78717;BME280;68045;50.042;14.432;2023-04-09T01:47:43;99082.56;;;6.00;68.62
78717;BME280;68045;50.042;14.432;2023-04-09T01:51:46;99075.63;;;5.92;68.35
78717;BME280;68045;50.042;14.432;2023-04-09T01:55:47;99084.09;;;5.94;68.61
78717;BME280;68045;50.042;14.432;2023-04-09T01:59:48;99085.09;;;5.93;69.36
78717;BME280;68045;50.042;14.432;2023-04-09T02:04:00;99073.91;;;5.99;69.46
78717;BME280;68045;50.042;14.432;2023-04-09T02:08:03;99071.44;;;5.98;69.79
78717;BME280;68045;50.042;14.432;2023-04-09T02:12:11;99082.56;;;6.00;69.45
78717;BME280;68045;50.042;14.432;2023-04-09T02:16:14;99079.97;;;6.00;69.67
78717;BME280;68045;50.042;14.432;2023-04-09T02:20:17;99073.94;;;5.76;69.23
78717;BME280;68045;50.042;14.432;2023-04-09T02:24:18;99085.72;;;5.43;70.92
78717;BME280;68045;50.042;14.432;2023-04-09T02:28:19;99086.78;;;5.48;70.93
78717;BME280;68045;50.042;14.432;2023-04-09T02:32:20;99085.97;;;5.48;71.32
78717;BME280;68045;50.042;14.432;2023-04-09T02:36:21;99081.91;;;5.45;71.61
78717;BME280;68045;50.042;14.432;2023-04-09T02:40:23;99075.38;;;5.04;71.79
78717;BME280;68045;50.042;14.432;2023-04-09T02:44:24;99084.59;;;4.91;73.85
78717;BME280;68045;50.042;14.432;2023-04-09T02:48:25;99081.28;;;4.75;73.98
78717;BME280;68045;50.042;14.432;2023-04-09T02:52:27;99076.03;;;4.75;74.16
78717;BME280;68045;50.042;14.432;2023-04-09T02:56:28;99081.69;;;4.86;74.03
78717;BME280;68045;50.042;14.432;2023-04-09T03:00:29;99077.63;;;5.07;73.95
78717;BME280;68045;50.042;14.432;2023-04-09T03:04:31;99082.63;;;5.16;73.56
78717;BME280;68045;50.042;14.432;2023-04-09T03:08:32;99081.97;;;5.14;73.42
78717;BME280;68045;50.042;14.432;2023-04-09T03:12:33;99068.91;;;5.14;73.16
78717;BME280;68045;50.042;14.432;2023-04-09T03:16:34;99069.81;;;4.76;75.14
78717;BME280;68045;50.042;14.432;2023-04-09T03:20:38;99076.66;;;4.77;75.71
78717;BME280;68045;50.042;14.432;2023-04-09T03:24:40;99067.41;;;4.97;74.59
78717;BME280;68045;50.042;14.432;2023-04-09T03:28:41;99065.03;;;4.87;74.59
78717;BME280;68045;50.042;14.432;2023-04-09T03:32:42;99064.66;;;4.90;74.38
78717;BME280;68045;50.042;14.432;2023-04-09T03:36:46;99070.94;;;4.81;75.36
78717;BME280;68045;50.042;14.432;2023-04-09T03:40:56;99071.13;;;4.80;75.13
78717;BME280;68045;50.042;14.432;2023-04-09T03:44:58;99062.47;;;4.71;75.26
78717;BME280;68045;50.042;14.432;2023-04-09T03:49:09;99066.34;;;4.83;75.77
78717;BME280;68045;50.042;14.432;2023-04-09T03:53:15;99059.25;;;4.92;75.63
78717;BME280;68045;50.042;14.432;2023-04-09T03:57:18;99049.19;;;5.04;75.86
78717;BME280;68045;50.042;14.432;2023-04-09T04:01:22;99056.09;;;5.19;75.62
78717;BME280;68045;50.042;14.432;2023-04-09T04:05:28;99063.38;;;5.32;75.29
78717;BME280;68045;50.042;14.432;2023-04-09T04:09:33;99055.16;;;5.35;75.01
78717;BME280;68045;50.042;14.432;2023-04-09T04:13:42;99060.94;;;5.31;74.04
78717;BME280;68045;50.042;14.432;2023-04-09T04:17:44;99070.75;;;5.06;75.58
78717;BME280;68045;50.042;14.432;2023-04-09T04:21:58;99076.13;;;4.89;76.38
78717;BME280;68045;50.042;14.432;2023-04-09T04:25:59;99078.16;;;4.79;77.17
78717;BME280;68045;50.042;14.432;2023-04-09T04:30:08;99087.09;;;4.85;76.50
78717;BME280;68045;50.042;14.432;2023-04-09T04:34:26;99088.81;;;5.01;75.70
78717;BME280;68045;50.042;14.432;2023-04-09T04:38:36;99094.38;;;5.20;75.80
78717;BME280;68045;50.042;14.432;2023-04-09T04:42:41;99096.19;;;5.43;75.95
78717;BME280;68045;50.042;14.432;2023-04-09T04:46:47;99106.41;;;5.53;75.99
78717;BME280;68045;50.042;14.432;2023-04-09T04:50:59;99094.94;;;5.54;75.63
78717;BME280;68045;50.042;14.432;2023-04-09T04:55:06;99093.41;;;5.59;75.92
78717;BME280;68045;50.042;14.432;2023-04-09T04:59:07;99093.53;;;5.66;75.87
78717;BME280;68045;50.042;14.432;2023-04-09T05:03:21;99087.03;;;5.76;75.80
78717;BME280;68045;50.042;14.432;2023-04-09T05:07:38;99090.44;;;5.77;75.38
78717;BME280;68045;50.042;14.432;2023-04-09T05:11:40;99086.13;;;5.84;76.05
78717;BME280;68045;50.042;14.432;2023-04-09T05:15:47;99088.31;;;5.81;75.45
78717;BME280;68045;50.042;14.432;2023-04-09T05:19:52;99084.50;;;5.83;75.61
78717;BME280;68045;50.042;14.432;2023-04-09T05:24:00;99089.03;;;5.89;74.53
78717;BME280;68045;50.042;14.432;2023-04-09T05:28:03;99091.84;;;5.88;74.77
78717;BME280;68045;50.042;14.432;2023-04-09T05:32:07;99090.84;;;5.89;75.07
78717;BME280;68045;50.042;14.432;2023-04-09T05:36:15;99106.88;;;5.94;74.06
78717;BME280;68045;50.042;14.432;2023-04-09T05:40:17;99108.13;;;5.98;73.58
78717;BME280;68045;50.042;14.432;2023-04-09T05:44:18;99099.13;;;6.00;72.84
78717;BME280;68045;50.042;14.432;2023-04-09T05:48:19;99112.31;;;6.07;72.58
78717;BME280;68045;50.042;14.432;2023-04-09T05:52:21;99108.69;;;6.08;72.57
78717;BME280;68045;50.042;14.432;2023-04-09T05:56:25;99120.88;;;6.16;72.67
78717;BME280;68045;50.042;14.432;2023-04-09T06:00:30;99120.09;;;6.15;72.45
78717;BME280;68045;50.042;14.432;2023-04-09T06:04:32;99119.09;;;6.16;72.29
78717;BME280;68045;50.042;14.432;2023-04-09T06:08:34;99120.09;;;6.15;72.65
78717;BME280;68045;50.042;14.432;2023-04-09T06:12:35;99125.59;;;6.20;71.69
78717;BME280;68045;50.042;14.432;2023-04-09T06:16:37;99134.53;;;6.26;71.37
78717;BME280;68045;50.042;14.432;2023-04-09T06:20:38;99133.38;;;6.28;71.85
78717;BME280;68045;50.042;14.432;2023-04-09T06:24:39;99129.19;;;6.34;71.44
78717;BME280;68045;50.042;14.432;2023-04-09T06:28:40;99126.41;;;6.36;71.65
78717;BME280;68045;50.042;14.432;2023-04-09T06:32:42;99131.75;;;6.27;71.85
78717;BME280;68045;50.042;14.432;2023-04-09T06:36:45;99137.97;;;6.26;71.77
78717;BME280;68045;50.042;14.432;2023-04-09T06:40:46;99136.63;;;6.30;70.97
78717;BME280;68045;50.042;14.432;2023-04-09T06:44:48;99137.34;;;6.39;70.92
78717;BME280;68045;50.042;14.432;2023-04-09T06:48:49;99141.84;;;6.45;70.24
78717;BME280;68045;50.042;14.432;2023-04-09T06:52:50;99154.06;;;6.53;70.77
78717;BME280;68045;50.042;14.432;2023-04-09T06:56:52;99154.63;;;6.63;71.12
78717;BME280;68045;50.042;14.432;2023-04-09T07:00:53;99152.78;;;6.78;70.30
78717;BME280;68045;50.042;14.432;2023-04-09T07:04:54;99152.13;;;6.91;70.10
78717;BME280;68045;50.042;14.432;2023-04-09T07:08:59;99164.84;;;7.09;69.73
78717;BME280;68045;50.042;14.432;2023-04-09T07:13:00;99153.06;;;7.20;68.84
78717;BME280;68045;50.042;14.432;2023-04-09T07:17:01;99160.13;;;7.19;67.98
78717;BME280;68045;50.042;14.432;2023-04-09T07:21:02;99152.66;;;7.23;67.25
78717;BME280;68045;50.042;14.432;2023-04-09T07:25:04;99154.75;;;7.27;68.08
78717;BME280;68045;50.042;14.432;2023-04-09T07:29:05;99160.16;;;7.26;67.76
78717;BME280;68045;50.042;14.432;2023-04-09T07:33:06;99151.38;;;7.33;68.48
78717;BME280;68045;50.042;14.432;2023-04-09T07:37:08;99155.91;;;7.46;67.44
78717;BME280;68045;50.042;14.432;2023-04-09T07:41:10;99158.38;;;7.69;67.60
78717;BME280;68045;50.042;14.432;2023-04-09T07:45:11;99153.03;;;7.84;66.27
78717;BME280;68045;50.042;14.432;2023-04-09T07:49:12;99155.13;;;7.95;67.00
78717;BME280;68045;50.042;14.432;2023-04-09T07:53:13;99168.38;;;8.08;65.67
78717;BME280;68045;50.042;14.432;2023-04-09T07:57:15;99170.84;;;8.16;65.76
78717;BME280;68045;50.042;14.432;2023-04-09T08:01:16;99170.91;;;8.23;65.03
78717;BME280;68045;50.042;14.432;2023-04-09T08:05:18;99179.59;;;8.23;64.83
78717;BME280;68045;50.042;14.432;2023-04-09T08:09:19;99175.41;;;8.29;64.90
78717;BME280;68045;50.042;14.432;2023-04-09T08:13:22;99177.34;;;8.42;64.80
78717;BME280;68045;50.042;14.432;2023-04-09T08:17:25;99172.84;;;8.70;65.08
78717;BME280;68045;50.042;14.432;2023-04-09T08:21:27;99178.34;;;9.50;62.46
78717;BME280;68045;50.042;14.432;2023-04-09T08:25:28;99184.88;;;10.47;59.80
78717;BME280;68045;50.042;14.432;2023-04-09T08:29:30;99178.03;;;11.35;55.49
78717;BME280;68045;50.042;14.432;2023-04-09T08:33:32;99172.09;;;11.71;52.52
78717;BME280;68045;50.042;14.432;2023-04-09T08:37:33;99169.19;;;11.86;54.09
78717;BME280;68045;50.042;14.432;2023-04-09T08:41:35;99179.59;;;12.06;51.77
78717;BME280;68045;50.042;14.432;2023-04-09T08:45:40;99175.19;;;12.18;51.86
78717;BME280;68045;50.042;14.432;2023-04-09T08:49:41;99178.19;;;12.47;52.19
78717;BME280;68045;50.042;14.432;2023-04-09T08:53:57;99178.72;;;12.92;50.96
78717;BME280;68045;50.042;14.432;2023-04-09T08:57:59;99178.59;;;13.77;49.77
78717;BME280;68045;50.042;14.432;2023-04-09T09:02:08;99178.91;;;14.46;48.04
78717;BME280;68045;50.042;14.432;2023-04-09T09:06:20;99179.03;;;15.03;45.45
78717;BME280;68045;50.042;14.432;2023-04-09T09:10:36;99174.69;;;15.71;42.16
78717;BME280;68045;50.042;14.432;2023-04-09T09:14:37;99171.75;;;16.56;39.66
78717;BME280;68045;50.042;14.432;2023-04-09T09:18:40;99182.97;;;18.10;36.90
78717;BME280;68045;50.042;14.432;2023-04-09T09:22:50;99175.34;;;20.51;32.77
78717;BME280;68045;50.042;14.432;2023-04-09T09:26:53;99178.13;;;22.47;28.52
78717;BME280;68045;50.042;14.432;2023-04-09T09:31:06;99187.75;;;21.95;29.20
78717;BME280;68045;50.042;14.432;2023-04-09T09:35:08;99184.84;;;20.98;29.39
78717;BME280;68045;50.042;14.432;2023-04-09T09:39:10;99189.59;;;19.60;32.67
78717;BME280;68045;50.042;14.432;2023-04-09T09:43:13;99187.97;;;18.81;34.06
78717;BME280;68045;50.042;14.432;2023-04-09T09:47:17;99189.72;;;17.86;35.38
78717;BME280;68045;50.042;14.432;2023-04-09T09:51:21;99186.66;;;17.45;36.91
78717;BME280;68045;50.042;14.432;2023-04-09T09:55:26;99186.03;;;17.11;38.68
78717;BME280;68045;50.042;14.432;2023-04-09T09:59:33;99188.59;;;16.79;38.55
78717;BME280;68045;50.042;14.432;2023-04-09T10:03:38;99187.00;;;17.05;38.06
78717;BME280;68045;50.042;14.432;2023-04-09T15:04:37;99100.78;;;12.81;52.42
78717;BME280;68045;50.042;14.432;2023-04-09T15:08:38;99103.72;;;12.73;52.64
78717;BME280;68045;50.042;14.432;2023-04-09T15:12:38;99111.09;;;12.71;53.11
78717;BME280;68045;50.042;14.432;2023-04-09T15:16:40;99108.59;;;12.76;53.35
78717;BME280;68045;50.042;14.432;2023-04-09T15:20:41;99101.53;;;12.70;53.77
78717;BME280;68045;50.042;14.432;2023-04-09T15:24:43;99107.16;;;12.62;53.52
78717;BME280;68045;50.042;14.432;2023-04-09T15:28:44;99111.50;;;12.56;53.68
78717;BME280;68045;50.042;14.432;2023-04-09T15:32:45;99100.16;;;12.49;54.41
78717;BME280;68045;50.042;14.432;2023-04-09T15:36:46;99098.69;;;12.35;51.71
78717;BME280;68045;50.042;14.432;2023-04-09T15:40:47;99102.97;;;12.36;52.16
78717;BME280;68045;50.042;14.432;2023-04-09T15:44:49;99104.53;;;12.19;52.56
78717;BME280;68045;50.042;14.432;2023-04-09T15:48:50;99100.16;;;12.13;51.98
78717;BME280;68045;50.042;14.432;2023-04-09T15:52:51;99089.59;;;11.88;52.70
78717;BME280;68045;50.042;14.432;2023-04-09T15:56:51;99098.41;;;11.75;53.38
78717;BME280;68045;50.042;14.432;2023-04-09T16:00:52;99101.28;;;11.73;53.81
78717;BME280;68045;50.042;14.432;2023-04-09T16:04:53;99101.03;;;11.57;54.76
78717;BME280;68045;50.042;14.432;2023-04-09T16:08:55;99093.72;;;11.52;54.19
78717;BME280;68045;50.042;14.432;2023-04-09T16:12:56;99104.94;;;11.47;54.71
78717;BME280;68045;50.042;14.432;2023-04-09T16:16:57;99110.44;;;11.46;55.13
78717;BME280;68045;50.042;14.432;2023-04-09T16:20:58;99097.41;;;11.51;54.15
78717;BME280;68045;50.042;14.432;2023-04-09T16:24:59;99102.63;;;11.33;54.94
78717;BME280;68045;50.042;14.432;2023-04-09T16:29:00;99107.03;;;11.14;56.12
78717;BME280;68045;50.042;14.432;2023-04-09T16:33:03;99096.72;;;10.99;52.44
78717;BME280;68045;50.042;14.432;2023-04-09T16:37:04;99101.41;;;10.97;52.88
78717;BME280;68045;50.042;14.432;2023-04-09T16:41:05;99100.81;;;10.95;53.96
78717;BME280;68045;50.042;14.432;2023-04-09T16:45:06;99097.78;;;10.91;53.74
78717;BME280;68045;50.042;14.432;2023-04-09T16:49:09;99101.88;;;10.87;54.94
78717;BME280;68045;50.042;14.432;2023-04-09T16:53:10;99100.66;;;10.83;55.47
78717;BME280;68045;50.042;14.432;2023-04-09T16:57:11;99102.50;;;10.83;55.83
78717;BME280;68045;50.042;14.432;2023-04-09T17:01:12;99100.13;;;10.68;54.70
78717;BME280;68045;50.042;14.432;2023-04-09T17:05:13;99103.19;;;10.71;55.57
78717;BME280;68045;50.042;14.432;2023-04-09T17:09:13;99107.22;;;10.74;55.26
78717;BME280;68045;50.042;14.432;2023-04-09T17:13:15;99110.06;;;10.72;55.97
78717;BME280;68045;50.042;14.432;2023-04-09T17:17:16;99118.19;;;10.71;54.73
78717;BME280;68045;50.042;14.432;2023-04-09T17:21:16;99105.94;;;10.38;53.68
78717;BME280;68045;50.042;14.432;2023-04-09T17:25:18;99115.09;;;10.23;54.60
78717;BME280;68045;50.042;14.432;2023-04-09T17:29:20;99121.19;;;10.16;54.48
78717;BME280;68045;50.042;14.432;2023-04-09T17:33:21;99128.28;;;9.96;53.40
78717;BME280;68045;50.042;14.432;2023-04-09T17:37:22;99123.81;;;10.03;54.29
78717;BME280;68045;50.042;14.432;2023-04-09T17:41:24;99132.97;;;10.01;55.44
78717;BME280;68045;50.042;14.432;2023-04-09T17:45:25;99135.78;;;9.93;56.78
78717;BME280;68045;50.042;14.432;2023-04-09T17:49:31;99143.69;;;9.79;58.62
78717;BME280;68045;50.042;14.432;2023-04-09T17:53:32;99146.16;;;9.68;59.41
78717;BME280;68045;50.042;14.432;2023-04-09T17:57:33;99157.69;;;9.60;60.86
78717;BME280;68045;50.042;14.432;2023-04-09T18:01:35;99168.59;;;9.37;62.32
78717;BME280;68045;50.042;14.432;2023-04-09T18:05:36;99167.31;;;9.06;63.61
78717;BME280;68045;50.042;14.432;2023-04-09T18:09:36;99165.97;;;8.76;64.78
78717;BME280;68045;50.042;14.432;2023-04-09T18:13:39;99175.28;;;8.78;64.83
78717;BME280;68045;50.042;14.432;2023-04-09T18:17:40;99178.09;;;8.70;66.06
78717;BME280;68045;50.042;14.432;2023-04-09T18:21:41;99178.63;;;8.59;65.61
78717;BME280;68045;50.042;14.432;2023-04-09T18:25:42;99180.66;;;8.57;66.21
78717;BME280;68045;50.042;14.432;2023-04-09T18:29:43;99180.38;;;8.45;67.02
78717;BME280;68045;50.042;14.432;2023-04-09T18:33:43;99191.34;;;8.49;66.90
78717;BME280;68045;50.042;14.432;2023-04-09T18:37:44;99188.72;;;8.49;67.41
78717;BME280;68045;50.042;14.432;2023-04-09T18:41:45;99186.13;;;8.56;67.89
78717;BME280;68045;50.042;14.432;2023-04-09T18:45:47;99180.09;;;8.62;67.21
78717;BME280;68045;50.042;14.432;2023-04-09T18:49:49;99177.50;;;8.68;66.34
78717;BME280;68045;50.042;14.432;2023-04-09T18:53:50;99177.13;;;8.78;66.33
78717;BME280;68045;50.042;14.432;2023-04-09T18:57:53;99183.44;;;8.84;66.16
78717;BME280;68045;50.042;14.432;2023-04-09T19:01:54;99173.72;;;8.91;64.80
78717;BME280;68045;50.042;14.432;2023-04-09T19:05:55;99175.19;;;9.00;64.06
78717;BME280;68045;50.042;14.432;2023-04-09T19:09:56;99173.78;;;9.04;65.06
78717;BME280;68045;50.042;14.432;2023-04-09T19:13:57;99173.97;;;9.09;66.56
78717;BME280;68045;50.042;14.432;2023-04-09T19:17:58;99172.97;;;9.03;68.09
78717;BME280;68045;50.042;14.432;2023-04-09T19:21:59;99171.38;;;9.16;68.25
78717;BME280;68045;50.042;14.432;2023-04-09T19:26:00;99168.72;;;9.09;68.48
78717;BME280;68045;50.042;14.432;2023-04-09T19:30:01;99169.56;;;9.10;69.29
78717;BME280;68045;50.042;14.432;2023-04-09T19:34:02;99168.72;;;9.09;69.53
78717;BME280;68045;50.042;14.432;2023-04-09T19:38:03;99166.94;;;9.10;69.93
78717;BME280;68045;50.042;14.432;2023-04-09T19:42:03;99158.63;;;9.13;69.64
78717;BME280;68045;50.042;14.432;2023-04-09T19:46:05;99157.81;;;9.19;68.72
78717;BME280;68045;50.042;14.432;2023-04-09T19:50:08;99165.28;;;9.08;69.23
78717;BME280;68045;50.042;14.432;2023-04-09T19:54:09;99166.50;;;9.13;69.66
78717;BME280;68045;50.042;14.432;2023-04-09T19:58:10;99162.25;;;9.12;68.59
78717;BME280;68045;50.042;14.432;2023-04-09T20:02:10;99163.88;;;9.13;67.66
78717;BME280;68045;50.042;14.432;2023-04-09T20:06:12;99165.13;;;9.17;67.55
78717;BME280;68045;50.042;14.432;2023-04-09T20:10:13;99167.56;;;9.18;68.65
78717;BME280;68045;50.042;14.432;2023-04-09T20:14:14;99166.94;;;9.23;68.55
78717;BME280;68045;50.042;14.432;2023-04-09T20:18:14;99164.50;;;9.21;69.56
78717;BME280;68045;50.042;14.432;2023-04-09T20:22:16;99168.97;;;9.21;69.28
78717;BME280;68045;50.042;14.432;2023-04-09T20:26:16;99166.31;;;9.14;69.15
78717;BME280;68045;50.042;14.432;2023-04-09T20:30:17;99165.91;;;9.11;69.11
78717;BME280;68045;50.042;14.432;2023-04-09T20:34:18;99171.56;;;9.07;68.90
78717;BME280;68045;50.042;14.432;2023-04-09T20:38:19;99168.13;;;9.07;69.34
78717;BME280;68045;50.042;14.432;2023-04-09T20:42:21;99166.94;;;9.10;68.84
78717;BME280;68045;50.042;14.432;2023-04-09T20:46:22;99161.19;;;8.99;68.88
78717;BME280;68045;50.042;14.432;2023-04-09T20:50:23;99167.06;;;8.95;69.14
78717;BME280;68045;50.042;14.432;2023-04-09T20:54:24;99164.25;;;8.96;69.03
78717;BME280;68045;50.042;14.432;2023-04-09T20:58:25;99169.03;;;8.86;68.61
78717;BME280;68045;50.042;14.432;2023-04-09T21:02:27;99164.53;;;8.73;69.09
78717;BME280;68045;50.042;14.432;2023-04-09T21:06:28;99172.97;;;8.56;68.94
78717;BME280;68045;50.042;14.432;2023-04-09T21:10:28;99166.25;;;8.46;69.68
78717;BME280;68045;50.042;14.432;2023-04-09T21:14:29;99176.31;;;8.43;69.39
78717;BME280;68045;50.042;14.432;2023-04-09T21:18:33;99174.69;;;8.42;68.66
78717;BME280;68045;50.042;14.432;2023-04-09T21:22:34;99169.63;;;8.40;67.61
78717;BME280;68045;50.042;14.432;2023-04-09T21:26:35;99180.78;;;8.42;67.38
78717;BME280;68045;50.042;14.432;2023-04-09T21:30:36;99166.00;;;8.41;68.35
78717;BME280;68045;50.042;14.432;2023-04-09T21:34:37;99168.84;;;8.40;68.78
78717;BME280;68045;50.042;14.432;2023-04-09T21:38:39;99178.94;;;8.43;69.66
78717;BME280;68045;50.042;14.432;2023-04-09T21:42:39;99174.69;;;8.42;70.21
78717;BME280;68045;50.042;14.432;2023-04-09T21:46:40;99175.50;;;8.42;70.17
78717;BME280;68045;50.042;14.432;2023-04-09T21:50:42;99173.22;;;8.33;70.95
78717;BME280;68045;50.042;14.432;2023-04-09T21:54:42;99171.53;;;8.25;71.83
78717;BME280;68045;50.042;14.432;2023-04-09T21:58:43;99177.63;;;8.25;71.49
78717;BME280;68045;50.042;14.432;2023-04-09T22:02:44;99184.97;;;8.09;72.82
78717;BME280;68045;50.042;14.432;2023-04-09T22:06:45;99192.63;;;8.04;72.72
78717;BME280;68045;50.042;14.432;2023-04-09T22:10:46;99193.31;;;7.91;73.73
78717;BME280;68045;50.042;14.432;2023-04-09T22:14:47;99192.81;;;7.81;74.20
78717;BME280;68045;50.042;14.432;2023-04-09T22:18:47;99194.63;;;7.80;74.70
78717;BME280;68045;50.042;14.432;2023-04-09T22:22:49;99207.50;;;7.75;73.92
78717;BME280;68045;50.042;14.432;2023-04-09T22:26:50;99190.47;;;7.64;74.75
78717;BME280;68045;50.042;14.432;2023-04-09T22:30:51;99197.91;;;7.82;74.08
78717;BME280;68045;50.042;14.432;2023-04-09T22:34:52;99201.09;;;7.78;74.96
78717;BME280;68045;50.042;14.432;2023-04-09T22:38:53;99196.31;;;7.66;75.25
78717;BME280;68045;50.042;14.432;2023-04-09T22:42:54;99200.09;;;7.57;74.81
78717;BME280;68045;50.042;14.432;2023-04-09T22:46:55;99206.47;;;7.48;75.71
78717;BME280;68045;50.042;14.432;2023-04-09T22:50:56;99195.16;;;7.48;76.02
78717;BME280;68045;50.042;14.432;2023-04-09T22:54:58;99199.81;;;7.52;75.58
78717;BME280;68045;50.042;14.432;2023-04-09T22:58:59;99200.03;;;7.51;75.58
78717;BME280;68045;50.042;14.432;2023-04-09T23:03:00;99196.59;;;7.50;75.85
78717;BME280;68045;50.042;14.432;2023-04-09T23:07:01;99196.97;;;7.47;75.69
78717;BME280;68045;50.042;14.432;2023-04-09T23:11:02;99200.63;;;7.53;75.97
78717;BME280;68045;50.042;14.432;2023-04-09T23:15:05;99191.19;;;7.58;74.99
78717;BME280;68045;50.042;14.432;2023-04-09T23:19:06;99188.50;;;7.73;75.04
78717;BME280;68045;50.042;14.432;2023-04-09T23:23:07;99191.19;;;7.80;74.58
78717;BME280;68045;50.042;14.432;2023-04-09T23:27:08;99183.38;;;7.86;74.25
78717;BME280;68045;50.042;14.432;2023-04-09T23:31:08;99187.88;;;7.92;73.85
78717;BME280;68045;50.042;14.432;2023-04-09T23:35:10;99194.69;;;7.87;74.06
78717;BME280;68045;50.042;14.432;2023-04-09T23:39:11;99195.94;;;7.91;73.55
78717;BME280;68045;50.042;14.432;2023-04-09T23:43:12;99197.19;;;7.95;74.00
78717;BME280;68045;50.042;14.432;2023-04-09T23:47:13;99191.84;;;8.10;73.71
78717;BME280;68045;50.042;14.432;2023-04-09T23:51:18;99195.81;;;7.99;73.24
78717;BME280;68045;50.042;14.432;2023-04-09T23:55:19;99194.88;;;7.85;73.96
78717;BME280;68045;50.042;14.432;2023-04-09T23:59:20;99183.06;;;7.75;74.34
